• Join FlightAware (Why Join?)
  • Login
  • US Flag 
01:00PM EDT


 

Airport Tracker/Info


-or-


 

Live Flight TrackerFlight Track Log ✈ UAL4553 ✈ 28-Apr-2013 ✈ KRDU - KIAH

Flight Track Log - Related Links

Times and Time Zones

All times are in EDT time to prevent confusion due to time zone crossing. See the UAL4553 flight status page for this flight to view local times or setup timezone preferences in your user account.

Time Position Orientation Groundspeed Altitude Reporting Facility
EDT Latitude Longitude Course Direction KTS MPH feet Rate Location/Type
01:35PM 35.9011 -78.7717 270° West 203 234 1,200  Level Washington Center
01:36PM 35.9686 -78.7358 23° Northeast 239 275 3,700 2,280 Climbing Washington Center
01:37PM 36.0344 -78.7794 332° Northwest 260 299 6,600 1,860 Climbing Washington Center
01:38PM 35.8368 -79.2490 263° West  Level FlightAware Approximate
01:38PM 36.0406 -78.8569 276° West 247 284 7,600  Level Washington Center
01:39PM 35.8261 -79.3653 262° West  Level FlightAware Approximate
01:39PM 36.0097 -78.9225 240° Southwest 264 304 9,400  Level Washington Center
01:40PM 35.8167 -79.4817 270° West  Level FlightAware Approximate
01:40PM 35.9739 -79.0056 242° Southwest 264 304 11,200  Level Washington Center
01:41PM 35.9317 -79.0936 239° Southwest 285 328 12,700 1,440 Climbing Washington Center
01:42PM 35.8872 -79.1889 240° Southwest 309 356 14,100 1,320 Climbing Washington Center
01:43PM 35.8469 -79.2769 241° Southwest 322 371 15,500 1,380 Climbing Washington Center
01:45PM 35.8197 -79.4956 261° West 332 382 18,200 1,440 Climbing Atlanta Center
01:46PM 35.8031 -79.6067 260° West 337 388 19,800 1,560 Climbing Atlanta Center
01:47PM 35.7842 -79.7228 259° West 332 382 21,300 1,320 Climbing Atlanta Center
01:48PM 35.7669 -79.8261 258° West 332 382 22,500 1,140 Climbing Atlanta Center
01:49PM 35.7458 -79.9397 257° West 339 390 23,700 1,200 Climbing Atlanta Center
01:50PM 35.7267 -80.0558 259° West 344 396 24,900 1,200 Climbing Atlanta Center
01:51PM 35.7031 -80.1694 256° West 344 396 26,200 1,200 Climbing Atlanta Center
01:52PM 35.6839 -80.2856 259° West 344 396 27,300 1,020 Climbing Atlanta Center
01:53PM 35.6581 -80.3992 254° West 344 396 28,300 960 Climbing Atlanta Center
01:54PM 35.6236 -80.5028 248° West 344 396 29,300 960 Climbing Atlanta Center
01:55PM 35.5831 -80.6219 247° West 339 390 30,300 960 Climbing Atlanta Center
01:56PM 35.5694 -80.7375 262° West 339 390 31,300 960 Climbing Atlanta Center
01:57PM 35.5558 -80.8531 262° West 339 390 32,300 960 Climbing Atlanta Center
01:58PM 35.5422 -80.9683 262° West 344 396 33,300 960 Climbing Atlanta Center
01:59PM 35.5261 -81.0839 260° West 344 396 34,300 900 Climbing Atlanta Center
02:00PM 35.5161 -81.1861 263° West 349 402 35,200 840 Climbing Atlanta Center
02:01PM 35.5019 -81.2964 261° West 349 402 36,000 360 Climbing Atlanta Center
02:02PM 35.4878 -81.4142 262° West 354 407 36,000  Level Atlanta Center
02:03PM 35.4736 -81.5319 262° West 354 407 36,000  Level Atlanta Center
02:04PM 35.4575 -81.6650 262° West 354 407 36,000  Level Atlanta Center
02:05PM 35.4431 -81.7878 262° West 359 413 36,000  Level Atlanta Center
02:06PM 35.4264 -81.9106 261° West 359 413 36,000  Level Atlanta Center
02:07PM 35.4117 -82.0256 261° West 353 406 36,000  Level Atlanta Center
02:08PM 35.3969 -82.1406 261° West 353 406 36,000  Level Atlanta Center
02:09PM 35.3819 -82.2556 261° West 353 406 36,000  Level Atlanta Center
02:10PM 35.3669 -82.3756 261° West 353 406 36,000  Level Atlanta Center
02:11PM 35.3497 -82.4956 260° West 353 406 36,000  Level Atlanta Center
02:12PM 35.3325 -82.6156 260° West 353 406 36,000  Level Atlanta Center
02:13PM 35.3169 -82.7331 261° West 353 406 36,000  Level Atlanta Center
02:14PM 35.2994 -82.8503 260° West 353 406 36,000  Level Atlanta Center
02:15PM 35.2839 -82.9625 260° West 353 406 36,000  Level Atlanta Center
02:16PM 35.2681 -83.0797 261° West 353 406 36,000  Level Atlanta Center
02:17PM 35.2522 -83.1969 261° West 353 406 36,000  Level Atlanta Center
02:18PM 35.2383 -83.3014 261° West 353 406 36,000  Level Atlanta Center
02:19PM 35.2200 -83.4133 259° West 353 406 36,000  Level Atlanta Center
02:20PM 35.2039 -83.5303 260° West 353 406 36,000  Level Atlanta Center
02:21PM 35.1878 -83.6500 261° West 353 406 36,000  Level Atlanta Center
02:22PM 35.1714 -83.7644 260° West 353 406 36,000  Level Atlanta Center
02:23PM 35.1547 -83.8839 260° West 353 406 36,000  Level Atlanta Center
02:24PM 35.1361 -84.0006 259° West 353 406 36,000  Level Atlanta Center
02:25PM 35.1194 -84.1175 260° West 353 406 36,000  Level Atlanta Center
02:26PM 35.1028 -84.2317 260° West 353 406 36,000  Level Atlanta Center
02:27PM 35.0836 -84.3458 258° West 353 406 36,000  Level Atlanta Center
02:28PM 35.0667 -84.4625 260° West 353 406 36,000  Level Atlanta Center
02:29PM 35.0517 -84.5767 261° West 353 406 36,000  Level Atlanta Center
02:30PM 35.0322 -84.6933 259° West 353 406 36,000  Level Atlanta Center
02:31PM 35.0147 -84.8122 260° West 353 406 36,000  Level Atlanta Center
02:32PM 34.9953 -84.9286 259° West 353 406 36,000  Level Atlanta Center
02:33PM 34.9775 -85.0503 260° West 353 406 36,000  Level Atlanta Center
02:34PM 34.9494 -85.1664 254° West 358 412 36,000  Level Atlanta Center
02:35PM 34.8817 -85.2667 231° Southwest 344 396 36,000  Level Atlanta Center
02:36PM 34.8183 -85.3544 229° Southwest 344 396 36,000  Level Atlanta Center
02:37PM 34.7525 -85.4419 228° Southwest 356 410 36,000  Level Atlanta Center
02:38PM 34.6869 -85.5317 228° Southwest 356 410 36,000  Level Atlanta Center
02:39PM 34.6253 -85.6214 230° Southwest 361 415 36,000  Level Atlanta Center
02:40PM 34.5594 -85.7086 228° Southwest 356 410 36,000  Level Atlanta Center
02:41PM 34.4933 -85.7981 228° Southwest 356 410 36,000  Level Atlanta Center
02:42PM 34.4294 -85.8847 228° Southwest 356 410 36,000  Level Atlanta Center
02:43PM 34.3614 -85.9739 227° Southwest 362 417 36,000  Level Atlanta Center
02:44PM 34.2931 -86.0628 227° Southwest 362 417 36,000  Level Atlanta Center
02:45PM 34.2269 -86.1567 230° Southwest 362 417 36,000  Level Atlanta Center
02:46PM 34.1586 -86.2453 227° Southwest 362 417 36,000  Level Atlanta Center
02:47PM 34.0900 -86.3364 228° Southwest 362 417 36,000  Level Atlanta Center
02:48PM 34.0236 -86.4272 229° Southwest 362 417 36,000  Level Atlanta Center
02:49PM 33.9572 -86.5181 229° Southwest 362 417 36,000  Level Atlanta Center
02:50PM 33.8886 -86.6064 227° Southwest 362 417 36,000  Level Atlanta Center
02:51PM 33.8219 -86.6967 228° Southwest 362 417 36,000  Level Atlanta Center
02:52PM 33.7531 -86.7872 228° Southwest 356 410 36,000  Level Atlanta Center
02:53PM 33.6864 -86.8772 228° Southwest 361 415 36,000  Level Atlanta Center
02:54PM 33.6422 -86.9808 243° Southwest 361 415 36,000  Level Atlanta Center
02:55PM 33.6019 -87.0942 247° West 356 410 36,000  Level Atlanta Center
02:56PM 33.5636 -87.2047 247° West 362 417 36,000  Level Atlanta Center
02:57PM 33.5272 -87.3156 249° West 367 422 36,000  Level Atlanta Center
03:01PM 33.3869 -87.7175 247° West 355 409 36,000  Level Memphis Center
03:02PM 33.3475 -87.8306 247° West 366 421 36,000  Level Memphis Center
03:03PM 33.3100 -87.9411 248° West 366 421 36,000  Level Memphis Center
03:04PM 33.2706 -88.0539 247° West 366 421 36,000  Level Memphis Center
03:05PM 33.2289 -88.1694 247° West 371 427 36,000  Level Memphis Center
03:06PM 33.1972 -88.2694 249° West 371 427 36,000  Level Memphis Center
03:07PM 33.1572 -88.3844 247° West 371 427 36,000  Level Memphis Center
03:08PM 33.1172 -88.5019 248° West 377 434 36,000  Level Memphis Center
03:09PM 33.0750 -88.6144 246° West 377 434 36,000  Level Memphis Center
03:10PM 33.0350 -88.7317 248° West 382 440 36,000  Level Memphis Center
03:11PM 32.9944 -88.8439 247° West 377 434 36,000  Level Memphis Center
03:12PM 32.9500 -88.9658 247° West 377 434 36,000  Level Memphis Center
03:13PM 32.9117 -89.0756 247° West 377 434 36,000  Level Memphis Center
03:14PM 32.8708 -89.1872 246° West 377 434 36,000  Level Memphis Center
03:15PM 32.8303 -89.2992 247° West 377 434 36,000  Level Memphis Center
03:16PM 32.7872 -89.4083 245° Southwest 377 434 36,000  Level Memphis Center
03:17PM 32.7464 -89.5200 247° West 377 434 36,000  Level Memphis Center
03:18PM 32.7053 -89.6289 246° West 377 434 36,000  Level Memphis Center
03:19PM 32.6703 -89.7281 247° West 377 434 36,000  Level Memphis Center
03:20PM 32.6292 -89.8392 246° West 377 434 36,000  Level Memphis Center
03:21PM 32.5878 -89.9481 246° West 372 428 36,000  Level Memphis Center
03:22PM 32.5483 -90.0567 247° West 367 422 36,000  Level Memphis Center
03:23PM 32.5089 -90.1628 246° West 367 422 36,000  Level Memphis Center
03:24PM 32.4569 -90.2636 239° Southwest 362 417 36,000  Level Memphis Center
03:25PM 32.4025 -90.3647 237° Southwest 362 417 36,000  Level Memphis Center
03:26PM 32.3525 -90.4656 240° Southwest 362 417 36,000  Level Memphis Center
03:27PM 32.2917 -90.5786 238° Southwest 362 417 36,000  Level Memphis Center
03:28PM 32.2394 -90.6792 238° Southwest 367 422 36,000  Level Memphis Center
03:29PM 32.1869 -90.7794 238° Southwest 367 422 36,000  Level Memphis Center
03:30PM 32.1322 -90.8800 237° Southwest 367 422 36,000  Level Memphis Center
03:30PM 32.1169 -90.9128 241° Southwest 370 426 36,000  Level Houston Center
03:31PM 32.0489 -91.0419 238° Southwest 384 442 36,000  Level Houston Center
03:32PM 31.9911 -91.1486 237° Southwest 388 447 36,000  Level Houston Center
03:33PM 31.9336 -91.2539 237° Southwest 383 441 36,000  Level Houston Center
03:34PM 31.8792 -91.3592 239° Southwest 379 436 36,000  Level Houston Center
03:35PM 31.8225 -91.4617 237° Southwest 374 430 36,000  Level Houston Center
03:36PM 31.7689 -91.5625 238° Southwest 365 420 36,000  Level Houston Center
03:37PM 31.7061 -91.6792 238° Southwest 354 407 36,000  Level Houston Center
03:38PM 31.6531 -91.7767 237° Southwest 354 407 36,000  Level Houston Center
03:39PM 31.6017 -91.8728 238° Southwest 349 402 36,000  Level Houston Center
03:40PM 31.5492 -91.9683 237° Southwest 348 400 36,000  Level Houston Center
03:42PM 31.4928 -92.0689 237° Southwest 347 399 36,000  Level Houston Center
03:43PM 31.4419 -92.1631 238° Southwest 344 396 36,000  Level Houston Center
03:44PM 31.3906 -92.2569 237° Southwest 343 395 36,000  Level Houston Center
03:45PM 31.3389 -92.3508 237° Southwest 343 395 36,000  Level Houston Center
03:46PM 31.2767 -92.4625 237° Southwest 343 395 36,000  Level Houston Center
03:47PM 31.2233 -92.5558 236° Southwest 345 397 36,000  Level Houston Center
03:48PM 31.1731 -92.6506 238° Southwest 344 396 36,000  Level Houston Center
03:49PM 31.1206 -92.7417 236° Southwest 340 391 36,000  Level Houston Center
03:50PM 31.0686 -92.8358 237° Southwest 343 395 36,000 -60 Level Houston Center
03:51PM 31.0461 -92.9597 258° West 334 384 35,900  Descending Houston Center
03:52PM 31.0481 -93.0686 271° West 338 389 36,000 -60 Climbing Houston Center
03:53PM 31.0453 -93.1758 268° West 335 386 35,800 -720 Descending Houston Center
03:54PM 30.9908 -93.2653 235° Southwest 342 394 34,600 -1,260 Descending Houston Center
03:55PM 30.9269 -93.3525 230° Southwest 352 405 33,300 -1,320 Descending Houston Center
03:56PM 30.8631 -93.4414 230° Southwest 358 412 31,900 -1,860 Descending Houston Center
03:57PM 30.7861 -93.5503 231° Southwest 364 419 29,500 -2,220 Descending Houston Center
03:58PM 30.7200 -93.6419 230° Southwest 371 427 27,400 -1,980 Descending Houston Center
03:59PM 30.6533 -93.7356 230° Southwest 379 436 25,400 -1,980 Descending Houston Center
04:00PM 30.5850 -93.8306 230° Southwest 386 444 23,400 -2,220 Descending Houston Center
04:01PM 30.5250 -93.9136 230° Southwest 401 461 21,700 -2,460 Descending Houston Center
04:01PM 30.4994 -93.9500 231° Southwest 403 464 20,900 -1,980 Descending Houston Center
04:02PM 30.4308 -94.0431 229° Southwest 386 444 18,900 -2,040 Descending Houston Center
04:03PM 30.3650 -94.1339 230° Southwest 372 428 16,800 -2,160 Descending Houston Center
04:05PM 30.2794 -94.2497 229° Southwest 347 399 14,100 -1,920 Descending Houston Center
04:05PM 30.2394 -94.3064 231° Southwest 353 406 12,900 -1,200 Descending Houston Center
04:06PM 30.1886 -94.4153 242° Southwest 327 376 11,900 -960 Descending Houston Center
04:07PM 30.1831 -94.4439 257° West 326 375 11,700 -1,020 Descending Houston Center
04:07PM 30.1717 -94.5183 260° West 327 376 10,900 -1,140 Descending Houston Center
04:08PM 30.1639 -94.5503 254° West 325 374 10,600 -960 Descending Houston Center
04:08PM 30.1553 -94.6175 262° West 322 371 9,900 -1,080 Descending Houston Center
04:09PM 30.1406 -94.7072 259° West 301 346 8,700 -1,260 Descending Houston Center
04:11PM 30.1172 -94.8269 257° West 302 348 7,200 -1,200 Descending Houston Center
04:12PM 30.1042 -94.9108 260° West 264 304 6,100 -720 Descending Houston Center
04:13PM 30.1058 -94.9903 271° West 266 306 5,900 -120 Descending Houston Center
04:14PM 30.1064 -95.0733 270° West 263 303 5,900 60 Level Houston Center
04:14PM 30.1053 -95.1017 267° West 253 291 6,000 60 Climbing Houston Center
04:15PM 30.1064 -95.1525 271° West 254 292 6,000  Level Houston Center
04:16PM 30.1069 -95.2261 271° West 241 277 6,000  Level Houston Center
04:17PM 30.1072 -95.2994 270° West 233 268 6,000 -300 Level Houston Center
04:18PM 30.1069 -95.3894 270° West 233 268 5,500 -660 Descending Houston Center
04:19PM 30.0997 -95.4608 263° West 233 268 4,700 -780 Descending Houston Center